createdAt,value
2018-06-17T00:02:24.780Z,15.90
2018-06-17T00:04:53.134Z,15.80
2018-06-17T00:07:21.439Z,15.80
2018-06-17T00:09:49.781Z,15.70
2018-06-17T00:12:18.133Z,15.70
2018-06-17T00:14:46.468Z,15.70
2018-06-17T00:17:14.814Z,15.60
2018-06-17T00:19:43.138Z,15.50
2018-06-17T00:22:11.441Z,15.50
2018-06-17T00:24:39.765Z,15.40
2018-06-17T00:27:08.086Z,15.30
2018-06-17T00:29:36.460Z,15.30
2018-06-17T00:32:04.773Z,15.20
2018-06-17T00:34:33.098Z,15.10
2018-06-17T00:37:01.409Z,15.10
2018-06-17T00:39:29.761Z,15.00
2018-06-17T00:41:58.081Z,15.00
2018-06-17T00:44:26.399Z,14.90
2018-06-17T00:46:54.705Z,14.80
2018-06-17T00:49:23.048Z,14.80
2018-06-17T00:51:51.368Z,14.70
2018-06-17T00:54:19.713Z,14.70
2018-06-17T00:56:59.380Z,14.60
2018-06-17T00:59:27.722Z,14.60
2018-06-17T01:01:56.040Z,14.60
2018-06-17T01:04:24.365Z,14.60
2018-06-17T01:06:52.690Z,14.50
2018-06-17T01:09:21.072Z,14.40
2018-06-17T01:11:49.377Z,14.40
2018-06-17T01:14:17.737Z,14.40
2018-06-17T01:16:46.097Z,14.30
2018-06-17T01:19:14.412Z,14.30
2018-06-17T01:21:42.748Z,14.20
2018-06-17T01:24:11.052Z,14.10
2018-06-17T01:26:39.365Z,14.10
2018-06-17T01:29:07.717Z,14.10
2018-06-17T01:31:36.027Z,14.00
2018-06-17T01:34:04.336Z,14.00
2018-06-17T01:36:32.667Z,13.90
2018-06-17T01:39:00.988Z,13.80
2018-06-17T01:41:29.333Z,13.80
2018-06-17T01:43:57.629Z,13.80
2018-06-17T01:46:25.988Z,13.80
2018-06-17T01:48:54.277Z,13.80
2018-06-17T01:51:22.609Z,13.80
2018-06-17T01:53:50.926Z,13.70
2018-06-17T01:56:19.293Z,13.80
2018-06-17T01:58:47.606Z,13.80
2018-06-17T02:01:15.962Z,13.70
2018-06-17T02:03:49.689Z,13.60
2018-06-17T02:06:23.333Z,13.50
2018-06-17T02:08:57.104Z,13.50
2018-06-17T02:11:30.855Z,13.40
2018-06-17T02:14:04.614Z,13.40
2018-06-17T02:16:32.948Z,13.40
2018-06-17T02:19:01.241Z,13.30
2018-06-17T02:21:29.577Z,13.30
2018-06-17T02:23:57.940Z,13.30
2018-06-17T02:26:26.289Z,13.30
2018-06-17T02:28:54.589Z,13.30
2018-06-17T02:31:22.913Z,13.30
2018-06-17T02:33:51.289Z,13.20
2018-06-17T02:36:19.674Z,13.20
2018-06-17T02:38:48.004Z,13.10
2018-06-17T02:41:16.573Z,13.10
2018-06-17T02:43:44.877Z,13.00
2018-06-17T02:46:18.576Z,13.00
2018-06-17T02:48:52.375Z,13.00
2018-06-17T02:51:26.169Z,12.90
2018-06-17T02:53:59.848Z,12.90
2018-06-17T02:56:28.214Z,12.90
2018-06-17T02:58:56.536Z,12.90
2018-06-17T03:01:24.881Z,12.80
2018-06-17T03:03:53.210Z,12.80
2018-06-17T03:06:21.489Z,12.80
2018-06-17T03:08:49.800Z,12.80
2018-06-17T03:11:18.125Z,12.90
2018-06-17T03:13:46.420Z,13.00
2018-06-17T03:16:14.770Z,13.20
2018-06-17T03:18:43.064Z,13.20
2018-06-17T03:21:11.416Z,13.00
2018-06-17T03:23:39.716Z,12.90
2018-06-17T03:26:13.371Z,12.80
2018-06-17T03:28:47.108Z,12.70
2018-06-17T03:31:17.517Z,12.60
2018-06-17T03:33:47.525Z,12.60
2018-06-17T03:36:16.529Z,12.50
2018-06-17T03:38:44.820Z,12.50
2018-06-17T03:41:13.149Z,12.40
2018-06-17T03:43:41.441Z,12.40
2018-06-17T03:46:09.877Z,12.70
2018-06-17T03:48:38.408Z,12.80
2018-06-17T03:51:06.802Z,13.00
2018-06-17T03:53:35.120Z,12.90
2018-06-17T03:56:03.522Z,12.80
2018-06-17T03:58:31.814Z,12.70
2018-06-17T04:01:00.142Z,12.60
2018-06-17T04:03:28.473Z,12.50
2018-06-17T04:05:56.806Z,12.60
2018-06-17T04:10:53.171Z,12.70
2018-06-17T04:13:21.490Z,12.70
2018-06-17T04:15:49.816Z,12.70
2018-06-17T04:18:18.144Z,12.70
2018-06-17T04:20:46.467Z,12.80
2018-06-17T04:23:14.777Z,12.80
2018-06-17T04:25:43.183Z,12.80
2018-06-17T04:28:15.734Z,12.90
2018-06-17T04:30:44.356Z,13.00
2018-06-17T04:33:12.708Z,13.00
2018-06-17T04:35:41.050Z,13.20
2018-06-17T04:38:09.354Z,13.30
2018-06-17T04:40:37.736Z,13.50
2018-06-17T04:43:06.066Z,13.60
2018-06-17T04:45:34.388Z,13.80
2018-06-17T04:48:02.677Z,13.90
2018-06-17T04:50:30.997Z,14.00
2018-06-17T04:52:59.412Z,14.10
2018-06-17T04:55:27.749Z,14.00
2018-06-17T04:57:56.076Z,14.10
2018-06-17T05:00:24.437Z,14.00
2018-06-17T05:02:52.757Z,14.10
2018-06-17T05:05:21.092Z,14.10
2018-06-17T05:07:49.405Z,14.10
2018-06-17T05:10:17.738Z,14.10
2018-06-17T05:12:46.229Z,14.10
2018-06-17T05:15:14.553Z,14.20
2018-06-17T05:17:42.885Z,14.20
2018-06-17T05:20:11.201Z,14.20
2018-06-17T05:22:39.508Z,14.10
2018-06-17T05:25:07.800Z,14.20
2018-06-17T05:27:36.117Z,14.60
2018-06-17T05:30:04.556Z,14.70
2018-06-17T05:32:32.878Z,15.00
2018-06-17T05:35:01.181Z,15.40
2018-06-17T05:37:29.493Z,15.70
2018-06-17T05:39:57.880Z,16.40
2018-06-17T05:42:26.226Z,17.30
2018-06-17T05:44:54.521Z,18.00
2018-06-17T05:47:22.845Z,18.40
2018-06-17T05:49:51.148Z,18.30
2018-06-17T05:52:19.490Z,17.80
2018-06-17T05:54:47.777Z,17.50
2018-06-17T05:57:16.109Z,17.10
2018-06-17T05:59:44.405Z,16.70
2018-06-17T06:02:12.722Z,16.50
2018-06-17T06:04:41.027Z,16.60
2018-06-17T06:07:09.392Z,16.80
2018-06-17T06:09:37.692Z,17.00
2018-06-17T06:12:06.022Z,17.60
2018-06-17T06:14:34.322Z,17.70
2018-06-17T06:17:02.647Z,17.80
2018-06-17T06:19:30.948Z,18.00
2018-06-17T06:21:59.256Z,17.80
2018-06-17T06:24:27.566Z,17.70
2018-06-17T06:26:55.893Z,17.80
2018-06-17T06:29:24.204Z,17.60
2018-06-17T06:31:52.538Z,17.70
2018-06-17T06:34:20.845Z,17.80
2018-06-17T06:36:49.180Z,18.00
2018-06-17T06:39:17.485Z,18.20
2018-06-17T06:41:45.886Z,18.00
2018-06-17T06:44:14.173Z,18.00
2018-06-17T06:46:42.496Z,18.10
2018-06-17T06:49:10.792Z,18.20
2018-06-17T06:51:39.113Z,18.20
2018-06-17T06:54:07.433Z,18.10
2018-06-17T06:56:35.765Z,18.20
2018-06-17T06:59:04.214Z,18.20
2018-06-17T07:01:43.803Z,18.30
2018-06-17T07:04:23.413Z,18.50
2018-06-17T07:07:03.197Z,18.70
2018-06-17T07:09:43.001Z,18.70
2018-06-17T07:12:11.321Z,18.90
2018-06-17T07:14:39.620Z,19.00
2018-06-17T07:17:19.311Z,19.10
2018-06-17T07:19:47.609Z,19.30
2018-06-17T07:22:15.946Z,19.20
2018-06-17T07:24:44.232Z,19.40
2018-06-17T07:27:24.097Z,19.50
2018-06-17T07:29:52.384Z,19.20
2018-06-17T07:32:20.713Z,19.20
2018-06-17T07:34:49.996Z,19.20
2018-06-17T07:37:18.332Z,19.20
2018-06-17T07:40:53.808Z,19.40
2018-06-17T07:43:22.249Z,19.50
2018-06-17T07:45:50.585Z,19.40
2018-06-17T07:49:35.725Z,19.40
2018-06-17T07:52:16.497Z,19.40
2018-06-17T07:54:45.270Z,19.60
2018-06-17T07:57:14.943Z,20.00
2018-06-17T07:59:43.384Z,20.30
2018-06-17T08:02:12.229Z,20.30
2018-06-17T08:04:41.452Z,20.30
2018-06-17T08:07:09.784Z,20.50
2018-06-17T08:09:38.085Z,20.70
2018-06-17T08:12:06.610Z,21.10
2018-06-17T08:14:34.900Z,21.70
2018-06-17T08:17:03.361Z,22.00
2018-06-17T08:19:31.806Z,22.70
2018-06-17T08:22:00.821Z,23.20
2018-06-17T08:24:29.571Z,23.70
2018-06-17T08:26:57.902Z,23.60
2018-06-17T08:29:26.461Z,22.70
2018-06-17T08:31:54.962Z,22.40
2018-06-17T08:34:23.256Z,23.10
2018-06-17T08:36:51.585Z,24.20
2018-06-17T08:39:21.091Z,24.40
2018-06-17T08:41:49.423Z,23.50
2018-06-17T08:44:18.452Z,23.00
2018-06-17T08:46:47.482Z,23.90
2018-06-17T08:49:16.153Z,24.60
2018-06-17T08:51:44.545Z,25.00
2018-06-17T08:54:12.900Z,25.00
2018-06-17T08:56:41.208Z,25.60
2018-06-17T08:59:09.512Z,26.00
2018-06-17T09:01:37.921Z,25.60
2018-06-17T09:04:06.254Z,25.00
2018-06-17T09:06:34.580Z,24.30
2018-06-17T09:09:02.960Z,24.70
2018-06-17T09:11:31.614Z,24.30
2018-06-17T09:13:59.928Z,23.80
2018-06-17T09:16:28.246Z,23.50
2018-06-17T09:18:56.542Z,22.70
2018-06-17T09:21:24.913Z,22.00
2018-06-17T09:23:53.241Z,21.60
2018-06-17T09:26:21.596Z,21.10
2018-06-17T09:28:49.913Z,21.00
2018-06-17T09:31:18.244Z,20.80
2018-06-17T09:33:46.537Z,20.80
2018-06-17T09:36:14.848Z,20.70
2018-06-17T09:38:49.905Z,20.70
2018-06-17T09:41:18.441Z,20.80
2018-06-17T09:43:46.773Z,21.00
2018-06-17T09:46:15.123Z,20.90
2018-06-17T09:48:43.420Z,21.00
2018-06-17T09:51:11.767Z,21.00
2018-06-17T09:53:40.115Z,21.10
2018-06-17T09:56:08.414Z,21.30
2018-06-17T09:58:36.745Z,21.50
2018-06-17T10:01:05.086Z,21.60
2018-06-17T10:03:33.405Z,21.70
2018-06-17T10:06:01.705Z,21.80
2018-06-17T10:08:30.037Z,21.80
2018-06-17T10:11:04.644Z,21.70
2018-06-17T10:13:34.440Z,21.80
2018-06-17T10:16:05.741Z,22.20
2018-06-17T10:18:34.056Z,22.50
2018-06-17T10:21:02.549Z,22.80
2018-06-17T10:23:30.883Z,23.20
2018-06-17T10:25:59.197Z,23.00
2018-06-17T10:28:28.485Z,23.30
2018-06-17T10:31:04.932Z,23.30
2018-06-17T10:33:33.649Z,22.60
2018-06-17T10:36:01.956Z,22.40
2018-06-17T10:38:30.293Z,22.10
2018-06-17T10:40:58.612Z,21.80
2018-06-17T10:43:28.702Z,21.70
2018-06-17T10:45:57.020Z,21.80
2018-06-17T10:48:25.329Z,22.00
2018-06-17T10:50:53.616Z,22.60
2018-06-17T10:53:21.950Z,22.30
2018-06-17T10:55:50.311Z,22.00
2018-06-17T10:58:18.605Z,21.90
2018-06-17T11:00:46.893Z,22.00
2018-06-17T11:03:15.225Z,21.90
2018-06-17T11:05:43.591Z,22.20
2018-06-17T11:08:11.841Z,22.30
2018-06-17T11:10:40.132Z,22.50
2018-06-17T11:13:08.504Z,23.00
2018-06-17T11:15:36.762Z,22.70
2018-06-17T11:18:05.155Z,22.40
2018-06-17T11:20:33.484Z,22.00
2018-06-17T11:23:01.801Z,21.90
2018-06-17T11:25:30.139Z,22.00
2018-06-17T11:27:58.476Z,22.10
2018-06-17T11:30:26.767Z,22.30
2018-06-17T11:32:55.094Z,22.40
2018-06-17T11:35:23.384Z,23.30
2018-06-17T11:37:51.712Z,24.10
2018-06-17T11:40:20.024Z,24.80
2018-06-17T11:42:48.346Z,25.10
2018-06-17T11:45:16.658Z,24.40
2018-06-17T11:47:44.969Z,23.20
2018-06-17T11:50:13.743Z,22.20
2018-06-17T11:52:42.059Z,21.80
2018-06-17T11:55:10.390Z,21.40
2018-06-17T11:57:38.737Z,21.20
2018-06-17T12:00:07.469Z,21.00
2018-06-17T12:02:35.796Z,20.70
2018-06-17T12:05:04.133Z,20.40
2018-06-17T12:07:32.460Z,20.40
2018-06-17T12:10:00.755Z,20.30
2018-06-17T12:12:29.073Z,20.10
2018-06-17T12:14:57.381Z,20.20
2018-06-17T12:17:25.744Z,20.90
2018-06-17T12:19:54.053Z,21.80
2018-06-17T12:22:22.398Z,22.00
2018-06-17T12:24:50.688Z,22.20
2018-06-17T12:27:18.996Z,22.40
2018-06-17T12:29:47.337Z,22.20
2018-06-17T12:32:15.638Z,21.90
2018-06-17T12:34:44.012Z,21.50
2018-06-17T12:37:12.305Z,21.40
2018-06-17T12:39:40.637Z,21.10
2018-06-17T12:42:08.953Z,20.90
2018-06-17T12:44:37.257Z,20.80
2018-06-17T12:47:05.609Z,21.00
2018-06-17T12:49:34.204Z,21.10
2018-06-17T12:52:02.514Z,21.20
2018-06-17T12:54:30.869Z,21.40
2018-06-17T12:56:59.180Z,21.40
2018-06-17T12:59:27.537Z,21.40
2018-06-17T13:01:55.844Z,21.50
2018-06-17T13:04:24.157Z,21.70
2018-06-17T13:06:52.462Z,22.30
2018-06-17T13:09:20.774Z,22.60
2018-06-17T13:11:49.089Z,22.60
2018-06-17T13:14:17.404Z,22.50
2018-06-17T13:16:45.688Z,22.30
2018-06-17T13:19:14.083Z,22.10
2018-06-17T13:21:42.360Z,21.80
2018-06-17T13:24:10.672Z,21.50
2018-06-17T13:26:38.964Z,21.30
2018-06-17T13:29:07.299Z,21.60
2018-06-17T13:31:35.597Z,21.90
2018-06-17T13:34:03.957Z,21.90
2018-06-17T13:36:32.257Z,21.80
2018-06-17T13:39:00.613Z,21.70
2018-06-17T13:41:28.937Z,21.50
2018-06-17T13:43:57.244Z,21.30
2018-06-17T13:46:25.560Z,21.20
2018-06-17T13:48:53.876Z,21.40
2018-06-17T13:51:22.181Z,21.40
2018-06-17T13:53:53.420Z,21.20
2018-06-17T13:56:21.708Z,21.30
2018-06-17T13:58:50.050Z,21.40
2018-06-17T14:01:18.383Z,21.70
2018-06-17T14:03:46.695Z,21.80
2018-06-17T14:06:14.993Z,21.80
2018-06-17T14:08:43.305Z,22.10
2018-06-17T14:11:11.597Z,22.20
2018-06-17T14:13:39.922Z,22.30
2018-06-17T14:16:08.248Z,22.40
2018-06-17T14:18:36.560Z,22.40
2018-06-17T14:21:04.884Z,22.30
2018-06-17T14:23:33.185Z,22.10
2018-06-17T14:26:01.513Z,21.90
2018-06-17T14:28:29.808Z,21.80
2018-06-17T14:33:26.145Z,21.40
2018-06-17T14:35:54.521Z,21.30
2018-06-17T14:38:22.869Z,21.20
2018-06-17T14:40:56.614Z,21.10
2018-06-17T14:43:30.420Z,21.20
2018-06-17T14:46:04.158Z,21.00
2018-06-17T14:48:37.910Z,20.90
2018-06-17T14:51:11.721Z,20.70
2018-06-17T14:53:40.027Z,20.60
2018-06-17T14:56:08.344Z,20.60
2018-06-17T14:58:36.667Z,20.60
2018-06-17T15:01:04.993Z,20.60
2018-06-17T15:03:33.436Z,20.50
2018-06-17T15:06:01.719Z,20.40
2018-06-17T15:08:30.015Z,20.40
2018-06-17T15:10:58.337Z,20.30
2018-06-17T15:13:26.650Z,20.20
2018-06-17T15:15:54.998Z,20.30
2018-06-17T15:18:23.274Z,20.30
2018-06-17T15:20:51.585Z,20.40
2018-06-17T15:23:19.881Z,20.50
2018-06-17T15:25:48.200Z,20.60
2018-06-17T15:28:16.571Z,20.80
2018-06-17T15:30:44.916Z,20.90
2018-06-17T15:33:18.697Z,21.00
2018-06-17T15:35:52.450Z,21.10
2018-06-17T15:38:26.245Z,21.00
2018-06-17T15:41:00.052Z,20.90
2018-06-17T15:43:28.380Z,20.80
2018-06-17T15:45:57.253Z,20.70
2018-06-17T15:48:25.548Z,20.60
2018-06-17T15:50:54.051Z,20.40
2018-06-17T15:53:22.317Z,20.40
2018-06-17T15:55:50.753Z,20.40
2018-06-17T15:58:19.069Z,20.40
2018-06-17T16:00:47.393Z,20.30
2018-06-17T16:03:15.681Z,20.20
2018-06-17T16:05:44.049Z,20.10
2018-06-17T16:08:12.340Z,20.00
2018-06-17T16:10:40.694Z,20.00
2018-06-17T16:13:14.490Z,20.00
2018-06-17T16:15:48.371Z,20.00
2018-06-17T16:18:21.993Z,19.90
2018-06-17T16:20:55.781Z,20.00
2018-06-17T16:23:24.087Z,19.90
2018-06-17T16:25:52.429Z,19.90
2018-06-17T16:28:20.744Z,19.80
2018-06-17T16:30:49.141Z,19.80
2018-06-17T16:33:17.984Z,19.90
2018-06-17T16:35:47.101Z,19.90
2018-06-17T16:38:15.534Z,20.00
2018-06-17T16:40:43.875Z,20.00
2018-06-17T16:43:12.177Z,20.00
2018-06-17T16:45:40.472Z,20.00
2018-06-17T16:48:09.447Z,20.00
2018-06-17T16:50:37.785Z,20.10
2018-06-17T16:53:12.237Z,20.30
2018-06-17T16:55:46.488Z,20.30
2018-06-17T16:58:22.380Z,20.50
2018-06-17T17:00:50.678Z,20.60
2018-06-17T17:03:19.015Z,20.60
2018-06-17T17:05:47.313Z,20.60
2018-06-17T17:08:15.638Z,20.60
2018-06-17T17:10:43.928Z,20.40
2018-06-17T17:13:12.272Z,20.30
2018-06-17T17:15:40.567Z,20.30
2018-06-17T17:18:08.977Z,20.30
2018-06-17T17:20:37.945Z,20.30
2018-06-17T17:23:06.288Z,20.30
2018-06-17T17:25:34.590Z,20.20
2018-06-17T17:28:02.924Z,20.10
2018-06-17T17:30:31.233Z,20.10
2018-06-17T17:33:04.853Z,20.10
2018-06-17T17:35:38.501Z,20.10
2018-06-17T17:38:12.228Z,20.20
2018-06-17T17:40:43.674Z,20.20
2018-06-17T17:43:11.992Z,20.00
2018-06-17T17:45:45.765Z,20.00
2018-06-17T17:48:14.072Z,19.80
2018-06-17T17:50:42.386Z,19.70
2018-06-17T17:53:10.705Z,19.70
2018-06-17T17:55:39.028Z,19.70
2018-06-17T17:58:07.361Z,19.60
2018-06-17T18:00:35.704Z,19.50
2018-06-17T18:03:04.117Z,19.30
2018-06-17T18:05:32.410Z,19.10
2018-06-17T18:08:00.725Z,18.90
2018-06-17T18:10:29.086Z,18.80
2018-06-17T18:12:57.405Z,18.70
2018-06-17T18:15:25.705Z,18.50
2018-06-17T18:17:54.029Z,18.50
2018-06-17T18:20:22.339Z,18.30
2018-06-17T18:22:50.681Z,18.30
2018-06-17T18:25:24.269Z,18.30
2018-06-17T18:27:58.054Z,18.30
2018-06-17T18:30:31.757Z,18.20
2018-06-17T18:33:05.509Z,18.30
2018-06-17T18:35:39.263Z,18.20
2018-06-17T18:38:07.605Z,18.20
2018-06-17T18:40:35.906Z,18.20
2018-06-17T18:43:04.279Z,18.20
2018-06-17T18:45:32.599Z,18.20
2018-06-17T18:48:00.926Z,18.20
2018-06-17T18:50:29.245Z,18.10
2018-06-17T18:52:57.577Z,18.10
2018-06-17T18:55:25.897Z,18.10
2018-06-17T18:57:54.240Z,18.00
2018-06-17T19:00:22.536Z,18.00
2018-06-17T19:02:50.879Z,18.00
2018-06-17T19:05:19.173Z,18.00
2018-06-17T19:07:47.477Z,17.90
2018-06-17T19:10:21.097Z,17.90
2018-06-17T19:12:54.753Z,17.90
2018-06-17T19:15:28.411Z,17.90
2018-06-17T19:18:02.057Z,17.80
2018-06-17T19:20:30.374Z,17.80
2018-06-17T19:22:58.695Z,17.60
2018-06-17T19:25:27.007Z,17.40
2018-06-17T19:30:23.329Z,17.40
2018-06-17T19:32:51.636Z,17.50
2018-06-17T19:35:19.949Z,17.50
2018-06-17T19:37:48.297Z,17.60
2018-06-17T19:40:16.568Z,17.60
2018-06-17T19:42:44.908Z,17.50
2018-06-17T19:45:13.224Z,17.50
2018-06-17T19:47:41.516Z,17.50
2018-06-17T19:50:15.156Z,17.30
2018-06-17T19:52:48.705Z,17.00
2018-06-17T19:55:22.488Z,17.00
2018-06-17T19:57:56.265Z,17.00
2018-06-17T20:00:30.094Z,17.00
2018-06-17T20:02:58.373Z,16.90
2018-06-17T20:05:26.688Z,16.90
2018-06-17T20:07:56.332Z,16.90
2018-06-17T20:10:24.727Z,16.80
2018-06-17T20:12:53.181Z,16.80
2018-06-17T20:15:21.581Z,16.70
2018-06-17T20:17:49.948Z,16.50
2018-06-17T20:20:18.255Z,16.40
2018-06-17T20:22:46.609Z,16.30
2018-06-17T20:25:14.928Z,16.40
2018-06-17T20:27:43.225Z,16.50
2018-06-17T20:30:11.545Z,16.40
2018-06-17T20:32:45.257Z,16.50
2018-06-17T20:35:19.064Z,16.50
2018-06-17T20:37:52.836Z,16.30
2018-06-17T20:40:26.472Z,16.50
2018-06-17T20:43:00.244Z,16.40
2018-06-17T20:45:28.572Z,16.30
2018-06-17T20:47:57.046Z,16.20
2018-06-17T20:50:25.335Z,16.20
2018-06-17T20:52:53.666Z,16.10
2018-06-17T20:55:21.990Z,16.00
2018-06-17T20:57:50.422Z,16.00
2018-06-17T21:00:18.767Z,15.80
2018-06-17T21:02:47.252Z,15.80
2018-06-17T21:05:15.597Z,15.70
2018-06-17T21:07:43.898Z,15.60
2018-06-17T21:10:12.221Z,15.40
2018-06-17T21:12:40.536Z,15.40
2018-06-17T21:15:14.285Z,15.30
2018-06-17T21:17:42.656Z,15.20
2018-06-17T21:20:16.340Z,15.10
2018-06-17T21:22:50.069Z,15.00
2018-06-17T21:25:23.758Z,14.90
2018-06-17T21:27:53.384Z,14.80
2018-06-17T21:30:22.065Z,14.70
2018-06-17T21:32:50.376Z,14.60
2018-06-17T21:35:18.817Z,14.50
2018-06-17T21:37:47.135Z,14.50
2018-06-17T21:40:15.452Z,14.40
2018-06-17T21:42:43.797Z,14.30
2018-06-17T21:45:12.537Z,14.30
2018-06-17T21:47:41.610Z,14.30
2018-06-17T21:50:09.925Z,14.20
2018-06-17T21:52:38.228Z,14.20
2018-06-17T21:55:06.866Z,14.10
2018-06-17T21:57:35.324Z,14.00
2018-06-17T22:00:04.384Z,14.00
2018-06-17T22:02:32.713Z,13.90
2018-06-17T22:05:01.056Z,13.80
2018-06-17T22:07:29.403Z,13.70
2018-06-17T22:10:03.204Z,13.70
2018-06-17T22:12:37.078Z,13.60
2018-06-17T22:15:10.832Z,13.60
2018-06-17T22:17:44.584Z,13.70
2018-06-17T22:20:12.892Z,13.80
2018-06-17T22:22:41.236Z,14.00
2018-06-17T22:25:09.577Z,14.10
2018-06-17T22:27:37.889Z,14.00
2018-06-17T22:30:06.237Z,13.90
2018-06-17T22:32:34.534Z,13.90
2018-06-17T22:35:02.864Z,13.80
2018-06-17T22:37:31.253Z,13.80
2018-06-17T22:40:00.397Z,13.80
2018-06-17T22:42:28.761Z,13.80
2018-06-17T22:44:57.076Z,13.70
2018-06-17T22:47:30.708Z,13.70
2018-06-17T22:49:58.996Z,13.70
2018-06-17T22:52:27.302Z,13.60
2018-06-17T22:54:55.592Z,13.60
2018-06-17T22:57:29.279Z,13.70
2018-06-17T23:00:03.127Z,13.90
2018-06-17T23:02:36.914Z,13.90
2018-06-17T23:05:10.632Z,13.90
2018-06-17T23:07:44.408Z,13.80
2018-06-17T23:10:12.740Z,13.70
2018-06-17T23:12:41.060Z,13.70
2018-06-17T23:15:09.424Z,13.70
2018-06-17T23:17:37.861Z,13.70
2018-06-17T23:20:06.183Z,13.70
2018-06-17T23:22:34.501Z,13.80
2018-06-17T23:25:02.817Z,13.80
2018-06-17T23:27:31.132Z,13.70
2018-06-17T23:29:59.462Z,13.80
2018-06-17T23:32:27.784Z,13.80
2018-06-17T23:34:56.081Z,13.70
2018-06-17T23:37:24.428Z,13.70
2018-06-17T23:39:52.933Z,13.80
2018-06-17T23:42:21.280Z,13.80
2018-06-17T23:44:49.566Z,13.80
2018-06-17T23:47:23.318Z,13.80
2018-06-17T23:49:57.229Z,13.70
2018-06-17T23:52:31.027Z,13.80
2018-06-17T23:55:04.754Z,14.00
2018-06-17T23:57:33.073Z,14.10
